createdAt,value
2022-08-05T00:02:07.924Z,24.16
2022-08-05T00:04:38.090Z,24.14
2022-08-05T00:07:26.935Z,24.09
2022-08-05T00:09:53.432Z,24.12
2022-08-05T00:12:21.243Z,24.11
2022-08-05T00:14:48.644Z,24.10
2022-08-05T00:17:19.432Z,24.04
2022-08-05T00:20:01.782Z,24.03
2022-08-05T00:22:29.525Z,23.75
2022-08-05T00:24:57.573Z,23.58
2022-08-05T00:27:35.857Z,23.66
2022-08-05T00:30:03.564Z,23.69
2022-08-05T00:32:30.124Z,23.55
2022-08-05T00:35:06.269Z,23.25
2022-08-05T00:37:50.944Z,23.20
2022-08-05T00:40:26.801Z,22.85
2022-08-05T00:42:56.718Z,22.93
2022-08-05T00:45:28.157Z,23.33
2022-08-05T00:48:08.367Z,23.10
2022-08-05T00:50:36.391Z,22.98
2022-08-05T00:53:03.322Z,22.60
2022-08-05T00:55:43.596Z,22.86
2022-08-05T00:58:11.996Z,22.74
2022-08-05T01:00:38.991Z,22.49
2022-08-05T01:03:07.896Z,22.32
2022-08-05T01:05:35.056Z,22.48
2022-08-05T01:08:41.838Z,22.77
2022-08-05T01:10:54.904Z,22.68
2022-08-05T01:13:57.341Z,22.82
2022-08-05T01:16:39.017Z,22.78
2022-08-05T01:19:36.495Z,22.17
2022-08-05T01:22:27.898Z,22.41
2022-08-05T01:25:40.067Z,22.65
2022-08-05T01:28:43.680Z,22.65
2022-08-05T01:31:33.614Z,22.44
2022-08-05T01:34:17.733Z,22.33
2022-08-05T01:36:54.700Z,21.95
2022-08-05T01:39:46.750Z,22.36
2022-08-05T01:42:23.861Z,22.37
2022-08-05T01:44:54.181Z,21.99
2022-08-05T01:47:24.111Z,21.96
2022-08-05T01:50:01.667Z,22.35
2022-08-05T01:52:31.207Z,21.99
2022-08-05T01:55:04.419Z,21.37
2022-08-05T01:58:18.978Z,21.78
2022-08-05T02:00:30.738Z,21.75
2022-08-05T02:03:24.437Z,21.67
2022-08-05T02:05:57.877Z,21.61
2022-08-05T02:08:31.234Z,21.48
2022-08-05T02:11:11.789Z,21.34
2022-08-05T02:13:56.081Z,21.38
2022-08-05T02:16:39.678Z,21.18
2022-08-05T02:19:16.001Z,21.00
2022-08-05T02:21:52.555Z,21.30
2022-08-05T02:24:23.317Z,20.76
2022-08-05T02:26:54.832Z,21.00
2022-08-05T02:29:58.239Z,21.04
2022-08-05T02:32:23.950Z,21.33
2022-08-05T02:35:01.994Z,20.94
2022-08-05T02:37:43.038Z,20.79
2022-08-05T02:40:17.025Z,21.04
2022-08-05T02:42:53.043Z,21.26
2022-08-05T02:45:24.123Z,21.25
2022-08-05T02:48:07.591Z,21.20
2022-08-05T02:50:45.923Z,21.71
2022-08-05T02:53:16.155Z,21.92
2022-08-05T02:55:53.849Z,21.78
2022-08-05T02:58:26.881Z,22.00
2022-08-05T03:00:56.552Z,21.62
2022-08-05T03:03:23.868Z,21.97
2022-08-05T03:06:56.887Z,22.20
2022-08-05T03:08:42.354Z,21.54
2022-08-05T03:11:55.323Z,21.53
2022-08-05T03:14:13.603Z,21.92
2022-08-05T03:16:40.503Z,21.96
2022-08-05T03:19:13.001Z,21.89
2022-08-05T03:21:49.429Z,21.86
2022-08-05T03:24:29.215Z,21.76
2022-08-05T03:26:57.983Z,21.99
2022-08-05T03:29:24.676Z,21.66
2022-08-05T03:32:12.181Z,21.86
2022-08-05T03:34:42.408Z,21.97
2022-08-05T03:37:18.459Z,21.98
2022-08-05T03:40:13.017Z,21.97
2022-08-05T03:42:51.963Z,21.96
2022-08-05T03:45:21.498Z,21.56
2022-08-05T03:47:50.214Z,21.59
2022-08-05T03:50:17.143Z,21.81
2022-08-05T03:55:54.081Z,21.88
2022-08-05T03:56:10.566Z,21.94
2022-08-05T03:58:42.688Z,21.85
2022-08-05T04:01:13.847Z,21.90
2022-08-05T04:04:09.322Z,21.90
2022-08-05T04:06:33.185Z,21.87
2022-08-05T04:09:02.461Z,21.89
2022-08-05T04:11:47.293Z,21.61
2022-08-05T04:14:18.352Z,21.67
2022-08-05T04:16:44.965Z,21.56
2022-08-05T04:19:13.167Z,21.25
2022-08-05T04:22:09.956Z,21.19
2022-08-05T04:24:27.615Z,21.18
2022-08-05T04:26:54.358Z,21.26
2022-08-05T04:29:21.042Z,21.05
2022-08-05T04:31:49.583Z,21.33
2022-08-05T04:34:19.125Z,21.51
2022-08-05T04:36:58.846Z,20.98
2022-08-05T04:39:27.364Z,21.28
2022-08-05T04:41:54.446Z,21.01
2022-08-05T04:44:29.118Z,21.40
2022-08-05T04:47:09.409Z,21.30
2022-08-05T04:50:02.046Z,20.57
2022-08-05T04:52:27.877Z,20.78
2022-08-05T04:54:57.009Z,21.18
2022-08-05T04:57:28.765Z,21.22
2022-08-05T04:59:57.540Z,21.47
2022-08-05T05:02:37.469Z,21.20
2022-08-05T05:05:26.344Z,21.53
2022-08-05T05:08:02.370Z,21.59
2022-08-05T05:10:30.831Z,21.26
2022-08-05T05:13:00.185Z,21.61
2022-08-05T05:15:54.290Z,21.64
2022-08-05T05:18:31.170Z,21.77
2022-08-05T05:21:00.850Z,21.69
2022-08-05T05:23:38.858Z,21.78
2022-08-05T05:26:13.947Z,21.44
2022-08-05T05:28:44.792Z,21.69
2022-08-05T05:31:12.637Z,21.67
2022-08-05T05:33:58.586Z,21.57
2022-08-05T05:36:28.683Z,21.74
2022-08-05T05:38:57.136Z,21.57
2022-08-05T05:41:24.014Z,21.34
2022-08-05T05:43:58.607Z,21.05
2022-08-05T05:46:26.977Z,21.05
2022-08-05T05:48:53.734Z,20.81
2022-08-05T05:51:25.686Z,20.74
2022-08-05T05:53:58.811Z,21.13
2022-08-05T05:56:33.210Z,21.19
2022-08-05T05:59:06.538Z,21.26
2022-08-05T06:01:37.082Z,20.66
2022-08-05T06:04:11.725Z,20.90
2022-08-05T06:06:41.948Z,20.95
2022-08-05T06:09:09.153Z,20.72
2022-08-05T06:12:01.303Z,21.11
2022-08-05T06:14:30.575Z,20.90
2022-08-05T06:16:57.929Z,20.83
2022-08-05T06:19:26.097Z,20.56
2022-08-05T06:22:06.495Z,20.58
2022-08-05T06:24:33.521Z,20.67
2022-08-05T06:27:01.753Z,20.52
2022-08-05T06:29:46.724Z,20.37
2022-08-05T06:32:25.233Z,20.08
2022-08-05T06:34:56.810Z,20.09
2022-08-05T06:37:56.224Z,20.49
2022-08-05T06:40:20.925Z,20.16
2022-08-05T06:42:51.870Z,20.27
2022-08-05T06:46:02.872Z,20.78
2022-08-05T06:48:37.284Z,20.60
2022-08-05T06:50:56.409Z,20.40
2022-08-05T06:53:28.310Z,19.68
2022-08-05T06:55:59.924Z,20.45
2022-08-05T06:58:35.105Z,20.48
2022-08-05T07:01:05.500Z,20.14
2022-08-05T07:03:33.516Z,20.61
2022-08-05T07:06:05.963Z,20.11
2022-08-05T07:08:47.278Z,20.19
2022-08-05T07:11:15.869Z,19.78
2022-08-05T07:14:01.613Z,19.88
2022-08-05T07:18:02.208Z,19.87
2022-08-05T07:22:29.031Z,20.50
2022-08-05T07:25:23.981Z,20.71
2022-08-05T07:27:58.047Z,20.62
2022-08-05T07:30:34.511Z,20.58
2022-08-05T07:33:09.276Z,20.46
2022-08-05T07:36:02.710Z,20.96
2022-08-05T07:38:34.219Z,20.90
2022-08-05T07:42:09.014Z,20.90
2022-08-05T07:43:56.308Z,20.69
2022-08-05T07:46:27.576Z,20.66
2022-08-05T07:49:02.475Z,20.87
2022-08-05T07:51:48.970Z,20.81
2022-08-05T07:54:31.002Z,20.55
2022-08-05T07:57:23.694Z,20.50
2022-08-05T07:59:50.930Z,20.64
2022-08-05T08:02:18.141Z,20.54
2022-08-05T08:04:47.229Z,20.38
2022-08-05T08:07:15.024Z,19.98
2022-08-05T08:09:42.330Z,20.22
2022-08-05T08:12:19.205Z,20.31
2022-08-05T08:14:56.495Z,20.21
2022-08-05T08:17:23.570Z,20.27
2022-08-05T08:20:22.956Z,20.75
2022-08-05T08:22:37.376Z,20.37
2022-08-05T08:25:15.654Z,20.35
2022-08-05T08:27:44.969Z,20.28
2022-08-05T08:30:28.465Z,20.52
2022-08-05T08:33:04.507Z,21.05
2022-08-05T08:35:40.990Z,20.60
2022-08-05T08:38:08.705Z,20.46
2022-08-05T08:40:50.483Z,20.86
2022-08-05T08:45:16.282Z,20.85
2022-08-05T08:46:06.654Z,21.03
2022-08-05T08:49:02.948Z,20.91
2022-08-05T08:52:02.874Z,20.47
2022-08-05T08:54:18.742Z,20.70
2022-08-05T08:56:47.707Z,21.04
2022-08-05T08:59:19.515Z,20.72
2022-08-05T09:01:47.282Z,21.07
2022-08-05T09:04:30.357Z,21.08
2022-08-05T09:07:00.408Z,20.76
2022-08-05T09:09:35.360Z,20.61
2022-08-05T09:12:20.420Z,20.98
2022-08-05T09:15:05.674Z,20.83
2022-08-05T09:17:43.127Z,20.36
2022-08-05T09:20:36.588Z,20.54
2022-08-05T09:23:18.562Z,20.79
2022-08-05T09:26:03.413Z,21.22
2022-08-05T09:28:33.422Z,20.75
2022-08-05T09:31:23.542Z,20.98
2022-08-05T09:34:02.509Z,21.24
2022-08-05T09:36:59.757Z,20.90
2022-08-05T09:39:41.228Z,20.89
2022-08-05T09:42:20.213Z,20.65
2022-08-05T09:44:56.779Z,19.99
2022-08-05T09:47:46.580Z,20.13
2022-08-05T09:50:18.103Z,20.63
2022-08-05T09:53:01.148Z,20.31
2022-08-05T09:55:58.061Z,20.55
2022-08-05T09:58:15.754Z,20.85
2022-08-05T10:00:57.782Z,21.00
2022-08-05T10:03:25.542Z,20.36
2022-08-05T10:06:15.430Z,20.74
2022-08-05T10:08:42.813Z,20.52
2022-08-05T10:11:17.837Z,20.51
2022-08-05T10:13:47.660Z,20.97
2022-08-05T10:16:52.948Z,20.78
2022-08-05T10:19:23.813Z,21.10
2022-08-05T10:22:09.114Z,21.21
2022-08-05T10:24:42.651Z,20.56
2022-08-05T10:27:14.888Z,20.96
2022-08-05T10:30:41.169Z,21.16
2022-08-05T10:32:53.045Z,21.07
2022-08-05T10:35:17.930Z,21.19
2022-08-05T10:37:45.654Z,21.45
2022-08-05T10:40:28.031Z,21.86
2022-08-05T10:43:18.342Z,21.58
2022-08-05T10:46:06.795Z,21.63
2022-08-05T10:48:52.372Z,21.64
2022-08-05T10:51:23.046Z,21.61
2022-08-05T10:53:58.468Z,21.69
2022-08-05T10:56:44.407Z,22.13
2022-08-05T11:00:02.840Z,22.22
2022-08-05T11:02:14.210Z,22.22
2022-08-05T11:04:57.277Z,22.63
2022-08-05T11:07:32.762Z,22.33
2022-08-05T11:10:03.675Z,22.61
2022-08-05T11:12:45.358Z,22.65
2022-08-05T11:15:20.478Z,22.54
2022-08-05T11:18:00.178Z,22.51
2022-08-05T11:20:47.425Z,22.99
2022-08-05T11:24:05.018Z,23.34
2022-08-05T11:26:32.604Z,23.46
2022-08-05T11:29:12.196Z,23.64
2022-08-05T11:31:56.648Z,23.07
2022-08-05T11:34:51.032Z,22.75
2022-08-05T11:38:26.305Z,23.61
2022-08-05T11:41:00.394Z,23.82
2022-08-05T11:44:01.084Z,23.94
2022-08-05T11:46:32.132Z,24.21
2022-08-05T11:49:00.911Z,23.77
2022-08-05T11:51:44.684Z,23.87
2022-08-05T11:54:33.971Z,23.84
2022-08-05T11:57:08.047Z,23.36
2022-08-05T11:59:50.685Z,23.24
2022-08-05T12:02:29.715Z,23.58
2022-08-05T12:04:59.403Z,23.78
2022-08-05T12:08:08.645Z,23.59
2022-08-05T12:10:21.471Z,24.13
2022-08-05T12:12:59.373Z,23.67
2022-08-05T12:15:33.952Z,24.48
2022-08-05T12:18:11.019Z,24.42
2022-08-05T12:20:38.896Z,24.37
2022-08-05T12:23:09.862Z,24.36
2022-08-05T12:25:56.370Z,24.68
2022-08-05T12:28:39.184Z,24.29
2022-08-05T12:31:06.195Z,23.99
2022-08-05T12:33:36.048Z,23.89
2022-08-05T12:36:07.173Z,24.36
2022-08-05T12:38:40.269Z,24.00
2022-08-05T12:41:13.261Z,24.12
2022-08-05T12:43:55.688Z,24.13
2022-08-05T12:46:29.589Z,24.48
2022-08-05T12:49:13.193Z,24.80
2022-08-05T12:52:14.113Z,25.14
2022-08-05T12:54:33.236Z,25.23
2022-08-05T12:57:02.441Z,24.88
2022-08-05T13:00:08.329Z,25.32
2022-08-05T13:02:27.220Z,24.93
2022-08-05T13:04:56.956Z,24.92
2022-08-05T13:07:57.387Z,25.73
2022-08-05T13:10:19.798Z,25.45
2022-08-05T13:12:50.992Z,25.31
2022-08-05T13:15:42.146Z,25.26
2022-08-05T13:18:20.022Z,24.85
2022-08-05T13:20:47.657Z,24.25
2022-08-05T13:23:16.325Z,23.70
2022-08-05T13:25:52.604Z,23.40
2022-08-05T13:28:27.196Z,23.21
2022-08-05T13:30:53.875Z,23.37
2022-08-05T13:34:24.888Z,23.48
2022-08-05T13:36:10.353Z,23.19
2022-08-05T13:38:42.495Z,23.01
2022-08-05T13:41:11.140Z,23.38
2022-08-05T13:43:44.886Z,24.01
2022-08-05T13:46:44.265Z,24.33
2022-08-05T13:49:11.572Z,24.64
2022-08-05T13:51:41.644Z,24.10
2022-08-05T13:54:13.633Z,23.65
2022-08-05T13:56:45.398Z,24.11
2022-08-05T13:59:24.812Z,23.21
2022-08-05T14:01:58.931Z,23.64
2022-08-05T14:05:03.250Z,23.83
2022-08-05T14:08:01.041Z,23.65
2022-08-05T14:10:31.079Z,23.66
2022-08-05T14:12:58.698Z,23.66
2022-08-05T14:16:09.180Z,23.90
2022-08-05T14:18:17.459Z,23.33
2022-08-05T14:20:48.692Z,23.67
2022-08-05T14:23:23.773Z,24.24
2022-08-05T14:25:58.696Z,23.54
2022-08-05T14:28:30.402Z,23.90
2022-08-05T14:30:58.846Z,24.25
2022-08-05T14:33:25.537Z,24.24
2022-08-05T14:35:54.318Z,23.79
2022-08-05T14:38:31.905Z,24.04
2022-08-05T14:41:00.804Z,24.52
2022-08-05T14:43:59.742Z,24.39
2022-08-05T14:46:14.146Z,24.37
2022-08-05T14:48:41.426Z,24.12
2022-08-05T14:51:08.429Z,24.17
2022-08-05T14:53:44.353Z,24.20
2022-08-05T14:56:11.795Z,24.58
2022-08-05T14:58:39.841Z,24.34
2022-08-05T15:01:16.062Z,24.71
2022-08-05T15:03:43.433Z,24.51
2022-08-05T15:06:14.917Z,24.32
2022-08-05T15:09:01.484Z,24.58
2022-08-05T15:11:51.141Z,24.27
2022-08-05T15:14:20.177Z,24.28
2022-08-05T15:17:03.879Z,24.19
2022-08-05T15:19:30.813Z,23.93
2022-08-05T15:21:59.874Z,24.25
2022-08-05T15:24:27.544Z,24.02
2022-08-05T15:26:54.120Z,23.97
2022-08-05T15:29:22.799Z,24.36
2022-08-05T15:31:52.742Z,24.53
2022-08-05T15:34:33.162Z,24.43
2022-08-05T15:37:06.999Z,24.53
2022-08-05T15:40:58.322Z,24.51
2022-08-05T15:42:56.555Z,23.89
2022-08-05T15:45:16.230Z,23.89
2022-08-05T15:47:44.054Z,23.84
2022-08-05T15:50:15.154Z,23.90
2022-08-05T15:52:54.361Z,23.93
2022-08-05T15:55:24.720Z,23.85
2022-08-05T15:58:08.406Z,24.01
2022-08-05T16:01:03.444Z,24.29
2022-08-05T16:03:21.476Z,24.13
2022-08-05T16:05:52.455Z,23.78
2022-08-05T16:08:19.390Z,24.02
2022-08-05T16:10:46.047Z,23.86
2022-08-05T16:13:23.239Z,23.92
2022-08-05T16:15:51.819Z,23.95
2022-08-05T16:18:18.880Z,23.80
2022-08-05T16:20:46.345Z,23.87
2022-08-05T16:23:13.096Z,23.84
2022-08-05T16:25:40.084Z,23.59
2022-08-05T16:28:09.525Z,23.33
2022-08-05T16:30:36.871Z,23.50
2022-08-05T16:33:04.495Z,23.60
2022-08-05T16:35:32.440Z,23.64
2022-08-05T16:38:16.051Z,23.53
2022-08-05T16:40:55.661Z,23.63
2022-08-05T16:43:28.169Z,23.60
2022-08-05T16:46:03.643Z,23.75
2022-08-05T16:48:35.827Z,23.59
2022-08-05T16:51:03.930Z,23.29
2022-08-05T16:54:04.147Z,22.98
2022-08-05T16:56:30.227Z,23.18
2022-08-05T16:58:57.465Z,23.14
2022-08-05T17:01:24.570Z,23.20
2022-08-05T17:03:51.880Z,23.15
2022-08-05T17:06:18.951Z,23.37
2022-08-05T17:08:52.125Z,23.34
2022-08-05T17:11:23.799Z,23.04
2022-08-05T17:14:00.427Z,23.36
2022-08-05T17:16:37.788Z,23.08
2022-08-05T17:19:06.994Z,23.28
2022-08-05T17:21:36.180Z,23.21
2022-08-05T17:24:28.054Z,23.48
2022-08-05T17:26:56.122Z,23.20
2022-08-05T17:29:39.988Z,23.30
2022-08-05T17:32:11.819Z,23.40
2022-08-05T17:34:53.080Z,22.88
2022-08-05T17:37:41.050Z,22.90
2022-08-05T17:40:10.362Z,23.21
2022-08-05T17:42:41.367Z,23.06
2022-08-05T17:45:20.032Z,22.88
2022-08-05T17:47:52.925Z,22.86
2022-08-05T17:50:29.463Z,22.71
2022-08-05T17:53:01.646Z,22.78
2022-08-05T17:55:37.549Z,22.77
2022-08-05T17:58:07.197Z,22.97
2022-08-05T18:00:36.672Z,22.93
2022-08-05T18:03:11.037Z,22.55
2022-08-05T18:05:38.974Z,22.68
2022-08-05T18:08:05.865Z,22.62
2022-08-05T18:10:33.643Z,22.46
2022-08-05T18:13:01.785Z,22.80
2022-08-05T18:15:31.173Z,22.71
2022-08-05T18:18:05.648Z,22.46
2022-08-05T18:20:37.937Z,22.73
2022-08-05T18:23:09.021Z,22.15
2022-08-05T18:25:38.818Z,22.30
2022-08-05T18:28:06.928Z,22.39
2022-08-05T18:30:34.666Z,22.37
2022-08-05T18:33:01.627Z,22.01
2022-08-05T18:35:49.397Z,22.20
2022-08-05T18:38:16.234Z,21.93
2022-08-05T18:41:57.395Z,21.84
2022-08-05T18:43:38.130Z,22.20
2022-08-05T18:46:09.598Z,21.81
2022-08-05T18:48:36.694Z,22.00
2022-08-05T18:52:03.164Z,22.07
2022-08-05T18:54:14.167Z,21.50
2022-08-05T18:56:40.706Z,21.74
2022-08-05T18:59:42.907Z,21.72
2022-08-05T19:01:56.801Z,21.56
2022-08-05T19:04:25.640Z,21.70
2022-08-05T19:06:53.793Z,21.68
2022-08-05T19:09:21.206Z,21.55
2022-08-05T19:12:00.628Z,21.58
2022-08-05T19:15:00.011Z,21.27
2022-08-05T19:17:16.236Z,21.18
2022-08-05T19:19:47.050Z,21.39
2022-08-05T19:22:17.028Z,21.09
2022-08-05T19:24:54.193Z,21.26
2022-08-05T19:27:22.503Z,20.92
2022-08-05T19:29:49.938Z,21.19
2022-08-05T19:32:16.498Z,21.19
2022-08-05T19:34:54.518Z,21.49
2022-08-05T19:37:29.991Z,21.31
2022-08-05T19:40:12.886Z,21.18
2022-08-05T19:42:41.849Z,21.03
2022-08-05T19:45:27.490Z,21.13
2022-08-05T19:47:59.857Z,21.06
2022-08-05T19:50:26.532Z,20.96
2022-08-05T19:52:53.055Z,20.84
2022-08-05T19:56:15.522Z,20.68
2022-08-05T19:58:29.280Z,20.40
2022-08-05T20:00:53.757Z,20.51
2022-08-05T20:03:20.399Z,20.74
2022-08-05T20:05:50.191Z,20.51
2022-08-05T20:08:19.147Z,20.28
2022-08-05T20:10:49.753Z,20.32
2022-08-05T20:13:17.373Z,20.45
2022-08-05T20:15:52.348Z,20.43
2022-08-05T20:18:32.691Z,20.30
2022-08-05T20:21:02.155Z,20.31
2022-08-05T20:23:42.285Z,19.79
2022-08-05T20:26:23.394Z,20.16
2022-08-05T20:28:53.993Z,20.24
2022-08-05T20:31:37.034Z,20.05
2022-08-05T20:34:11.588Z,19.91
2022-08-05T20:36:43.235Z,20.15
2022-08-05T20:39:12.950Z,20.54
2022-08-05T20:41:43.215Z,20.11
2022-08-05T20:44:18.602Z,20.25
2022-08-05T20:46:57.172Z,20.12
2022-08-05T20:49:26.042Z,20.10
2022-08-05T20:51:54.112Z,20.14
2022-08-05T20:54:21.819Z,20.30
2022-08-05T20:56:48.935Z,20.16
2022-08-05T20:59:19.138Z,20.02
2022-08-05T21:01:53.076Z,20.32
2022-08-05T21:04:19.694Z,20.21
2022-08-05T21:06:46.407Z,20.05
2022-08-05T21:09:14.206Z,20.42
2022-08-05T21:12:07.417Z,20.26
2022-08-05T21:14:34.861Z,20.19
2022-08-05T21:17:03.162Z,19.72
2022-08-05T21:19:46.648Z,19.74
2022-08-05T21:22:23.167Z,19.80
2022-08-05T21:24:52.438Z,20.10
2022-08-05T21:27:25.217Z,20.26
2022-08-05T21:29:56.857Z,19.75
2022-08-05T21:32:26.999Z,20.11
2022-08-05T21:34:56.016Z,19.60
2022-08-05T21:37:42.365Z,19.99
2022-08-05T21:40:14.133Z,19.85
2022-08-05T21:42:45.097Z,19.97
2022-08-05T21:45:17.594Z,19.98
2022-08-05T21:47:56.432Z,19.66
2022-08-05T21:50:24.086Z,19.73
2022-08-05T21:52:50.659Z,19.23
2022-08-05T21:55:42.965Z,19.31
2022-08-05T21:58:05.772Z,19.60
2022-08-05T22:00:32.368Z,19.65
2022-08-05T22:02:59.725Z,19.47
2022-08-05T22:05:27.368Z,19.43
2022-08-05T22:07:59.518Z,19.48
2022-08-05T22:10:29.224Z,18.95
2022-08-05T22:13:08.916Z,19.22
2022-08-05T22:16:00.686Z,19.03
2022-08-05T22:18:34.019Z,19.18
2022-08-05T22:21:00.795Z,19.24
2022-08-05T22:24:01.900Z,19.18
2022-08-05T22:26:53.780Z,19.42
2022-08-05T22:29:26.142Z,19.31
2022-08-05T22:31:55.323Z,19.41
2022-08-05T22:34:28.736Z,19.33
2022-08-05T22:36:56.672Z,19.47
2022-08-05T22:39:32.537Z,19.26
2022-08-05T22:42:09.493Z,19.27
2022-08-05T22:44:38.554Z,19.25
2022-08-05T22:47:05.976Z,18.79
2022-08-05T22:50:17.250Z,18.54
2022-08-05T22:52:30.432Z,19.22
2022-08-05T22:55:00.696Z,19.55
2022-08-05T22:57:27.255Z,19.26
2022-08-05T23:00:03.814Z,19.07
2022-08-05T23:02:30.645Z,19.06
2022-08-05T23:05:02.047Z,19.18
2022-08-05T23:07:32.564Z,19.40
2022-08-05T23:10:10.484Z,19.32
2022-08-05T23:12:36.998Z,19.20
2022-08-05T23:15:08.690Z,19.46
2022-08-05T23:17:59.595Z,19.53
2022-08-05T23:20:23.576Z,19.48
2022-08-05T23:22:55.914Z,19.08
2022-08-05T23:25:54.939Z,19.40
2022-08-05T23:28:11.129Z,19.43
2022-08-05T23:30:40.663Z,19.12
2022-08-05T23:33:16.172Z,19.26
2022-08-05T23:35:50.441Z,18.94
2022-08-05T23:38:18.148Z,18.99
2022-08-05T23:40:50.116Z,19.19
2022-08-05T23:43:25.800Z,19.24
2022-08-05T23:46:20.971Z,19.32
2022-08-05T23:49:00.412Z,19.38
2022-08-05T23:51:54.166Z,19.39
2022-08-05T23:54:25.829Z,19.32
2022-08-05T23:56:53.868Z,19.37
2022-08-05T23:59:20.389Z,19.32
